sensor_id;sensor_type;location;lat;lon;timestamp;pressure;altitude;pressure_sealevel;temperature;humidity
75650;BME280;64245;51.282;22.494;2023-02-04T00:01:40;98256.81;;;-1.80;100.00
75650;BME280;64245;51.282;22.494;2023-02-04T00:04:06;98271.63;;;-1.63;100.00
75650;BME280;64245;51.282;22.494;2023-02-04T00:06:31;98287.72;;;-1.53;99.88
75650;BME280;64245;51.282;22.494;2023-02-04T00:08:57;98284.53;;;-1.58;99.74
75650;BME280;64245;51.282;22.494;2023-02-04T00:11:23;98284.16;;;-1.66;100.00
75650;BME280;64245;51.282;22.494;2023-02-04T00:13:48;98291.50;;;-1.57;100.00
75650;BME280;64245;51.282;22.494;2023-02-04T00:16:14;98282.16;;;-1.77;100.00
75650;BME280;64245;51.282;22.494;2023-02-04T00:18:40;98296.84;;;-1.73;100.00
75650;BME280;64245;51.282;22.494;2023-02-04T00:21:05;98304.41;;;-1.67;100.00
75650;BME280;64245;51.282;22.494;2023-02-04T00:23:31;98299.78;;;-1.63;100.00
75650;BME280;64245;51.282;22.494;2023-02-04T00:25:57;98282.53;;;-1.69;100.00
75650;BME280;64245;51.282;22.494;2023-02-04T00:28:22;98273.00;;;-1.86;100.00
75650;BME280;64245;51.282;22.494;2023-02-04T00:30:48;98286.69;;;-1.65;100.00
75650;BME280;64245;51.282;22.494;2023-02-04T00:33:14;98268.75;;;-1.88;100.00
75650;BME280;64245;51.282;22.494;2023-02-04T00:35:39;98277.16;;;-1.82;100.00
75650;BME280;64245;51.282;22.494;2023-02-04T00:38:05;98279.13;;;-1.71;100.00
75650;BME280;64245;51.282;22.494;2023-02-04T00:40:31;98295.91;;;-1.72;100.00
75650;BME280;64245;51.282;22.494;2023-02-04T00:42:57;98301.84;;;-1.68;100.00
75650;BME280;64245;51.282;22.494;2023-02-04T00:45:23;98291.69;;;-1.75;99.95
75650;BME280;64245;51.282;22.494;2023-02-04T00:47:49;98281.75;;;-1.99;100.00
75650;BME280;64245;51.282;22.494;2023-02-04T00:50:15;98291.09;;;-1.94;100.00
75650;BME280;64245;51.282;22.494;2023-02-04T00:52:40;98305.91;;;-1.77;100.00
75650;BME280;64245;51.282;22.494;2023-02-04T00:55:06;98314.28;;;-1.85;100.00
75650;BME280;64245;51.282;22.494;2023-02-04T00:57:33;98326.47;;;-1.68;100.00
75650;BME280;64245;51.282;22.494;2023-02-04T00:59:58;98329.34;;;-1.87;100.00
75650;BME280;64245;51.282;22.494;2023-02-04T01:02:24;98317.41;;;-1.78;99.79
75650;BME280;64245;51.282;22.494;2023-02-04T01:04:50;98320.97;;;-1.93;99.92
75650;BME280;64245;51.282;22.494;2023-02-04T01:07:16;98325.94;;;-1.89;99.90
75650;BME280;64245;51.282;22.494;2023-02-04T01:09:42;98332.00;;;-1.87;100.00
75650;BME280;64245;51.282;22.494;2023-02-04T01:12:08;98340.00;;;-1.88;99.98
75650;BME280;64245;51.282;22.494;2023-02-04T01:14:33;98350.47;;;-1.87;99.70
75650;BME280;64245;51.282;22.494;2023-02-04T01:16:59;98355.53;;;-1.98;99.92
75650;BME280;64245;51.282;22.494;2023-02-04T01:19:25;98355.75;;;-1.87;99.93
75650;BME280;64245;51.282;22.494;2023-02-04T01:21:51;98337.03;;;-2.12;99.46
75650;BME280;64245;51.282;22.494;2023-02-04T01:24:16;98362.34;;;-2.10;99.70
75650;BME280;64245;51.282;22.494;2023-02-04T01:26:42;98356.47;;;-1.99;99.60
75650;BME280;64245;51.282;22.494;2023-02-04T01:29:07;98388.97;;;-1.98;99.08
75650;BME280;64245;51.282;22.494;2023-02-04T01:31:33;98382.53;;;-2.09;98.86
75650;BME280;64245;51.282;22.494;2023-02-04T01:33:59;98401.41;;;-2.00;99.09
75650;BME280;64245;51.282;22.494;2023-02-04T01:36:26;98413.19;;;-1.92;99.05
75650;BME280;64245;51.282;22.494;2023-02-04T01:38:52;98407.97;;;-2.08;99.15
75650;BME280;64245;51.282;22.494;2023-02-04T01:41:18;98419.63;;;-2.12;99.32
75650;BME280;64245;51.282;22.494;2023-02-04T01:43:45;98422.16;;;-1.94;98.82
75650;BME280;64245;51.282;22.494;2023-02-04T01:46:11;98431.78;;;-1.93;98.81
75650;BME280;64245;51.282;22.494;2023-02-04T01:48:37;98416.97;;;-2.12;98.38
75650;BME280;64245;51.282;22.494;2023-02-04T01:51:06;98424.88;;;-2.12;98.38
75650;BME280;64245;51.282;22.494;2023-02-04T01:53:33;98429.53;;;-2.15;98.93
75650;BME280;64245;51.282;22.494;2023-02-04T01:55:59;98446.25;;;-2.00;98.69
75650;BME280;64245;51.282;22.494;2023-02-04T01:58:27;98458.00;;;-2.06;98.60
75650;BME280;64245;51.282;22.494;2023-02-04T02:00:54;98468.28;;;-2.01;98.64
75650;BME280;64245;51.282;22.494;2023-02-04T02:03:20;98455.72;;;-2.12;98.12
75650;BME280;64245;51.282;22.494;2023-02-04T02:05:48;98464.38;;;-2.10;98.41
75650;BME280;64245;51.282;22.494;2023-02-04T02:08:15;98477.75;;;-2.13;98.27
75650;BME280;64245;51.282;22.494;2023-02-04T02:10:44;98452.75;;;-2.37;98.58
75650;BME280;64245;51.282;22.494;2023-02-04T02:13:14;98477.25;;;-2.20;98.97
75650;BME280;64245;51.282;22.494;2023-02-04T02:15:41;98458.44;;;-2.29;98.87
75650;BME280;64245;51.282;22.494;2023-02-04T02:18:07;98490.84;;;-2.27;99.01
75650;BME280;64245;51.282;22.494;2023-02-04T02:20:33;98477.66;;;-2.27;99.04
75650;BME280;64245;51.282;22.494;2023-02-04T02:26:03;98498.22;;;-2.50;99.25
75650;BME280;64245;51.282;22.494;2023-02-04T02:28:28;98481.66;;;-2.52;99.88
75650;BME280;64245;51.282;22.494;2023-02-04T02:30:54;98492.94;;;-2.50;100.00
75650;BME280;64245;51.282;22.494;2023-02-04T02:33:20;98541.84;;;-2.44;99.74
75650;BME280;64245;51.282;22.494;2023-02-04T02:35:46;98536.59;;;-2.44;99.91
75650;BME280;64245;51.282;22.494;2023-02-04T02:38:16;98542.16;;;-2.50;99.98
75650;BME280;64245;51.282;22.494;2023-02-04T02:40:42;98546.34;;;-2.46;100.00
75650;BME280;64245;51.282;22.494;2023-02-04T02:43:14;98561.84;;;-2.40;99.57
75650;BME280;64245;51.282;22.494;2023-02-04T02:45:42;98573.50;;;-2.44;99.68
75650;BME280;64245;51.282;22.494;2023-02-04T02:48:08;98582.09;;;-2.40;99.77
75650;BME280;64245;51.282;22.494;2023-02-04T02:50:35;98588.38;;;-2.43;99.86
75650;BME280;64245;51.282;22.494;2023-02-04T02:53:01;98579.94;;;-2.50;99.55
75650;BME280;64245;51.282;22.494;2023-02-04T02:55:29;98584.63;;;-2.55;100.00
75650;BME280;64245;51.282;22.494;2023-02-04T02:57:56;98608.69;;;-2.45;99.76
75650;BME280;64245;51.282;22.494;2023-02-04T03:00:24;98623.59;;;-2.44;99.56
75650;BME280;64245;51.282;22.494;2023-02-04T03:05:22;98632.41;;;-2.45;99.54
75650;BME280;64245;51.282;22.494;2023-02-04T03:07:48;98627.09;;;-2.61;99.47
75650;BME280;64245;51.282;22.494;2023-02-04T03:10:15;98639.72;;;-2.50;99.84
75650;BME280;64245;51.282;22.494;2023-02-04T03:12:41;98664.28;;;-2.50;99.39
75650;BME280;64245;51.282;22.494;2023-02-04T03:15:07;98672.31;;;-2.51;99.38
75650;BME280;64245;51.282;22.494;2023-02-04T03:17:33;98671.34;;;-2.50;99.52
75650;BME280;64245;51.282;22.494;2023-02-04T03:20:00;98681.59;;;-2.44;99.11
75650;BME280;64245;51.282;22.494;2023-02-04T03:22:26;98686.00;;;-2.45;99.13
75650;BME280;64245;51.282;22.494;2023-02-04T03:24:52;98693.47;;;-2.53;98.81
75650;BME280;64245;51.282;22.494;2023-02-04T03:27:18;98710.88;;;-2.50;98.89
75650;BME280;64245;51.282;22.494;2023-02-04T03:29:45;98698.75;;;-2.70;99.21
75650;BME280;64245;51.282;22.494;2023-02-04T03:32:11;98706.00;;;-2.58;98.80
75650;BME280;64245;51.282;22.494;2023-02-04T03:34:37;98718.34;;;-2.58;98.80
75650;BME280;64245;51.282;22.494;2023-02-04T03:37:02;98728.81;;;-2.57;99.38
75650;BME280;64245;51.282;22.494;2023-02-04T03:39:28;98719.72;;;-2.68;98.64
75650;BME280;64245;51.282;22.494;2023-02-04T03:41:53;98752.97;;;-2.66;98.75
75650;BME280;64245;51.282;22.494;2023-02-04T03:44:19;98761.38;;;-2.58;98.27
75650;BME280;64245;51.282;22.494;2023-02-04T03:46:46;98762.50;;;-2.63;98.68
75650;BME280;64245;51.282;22.494;2023-02-04T03:49:12;98755.75;;;-2.69;98.21
75650;BME280;64245;51.282;22.494;2023-02-04T03:51:37;98761.34;;;-2.75;99.23
75650;BME280;64245;51.282;22.494;2023-02-04T03:54:03;98777.16;;;-2.75;98.67
75650;BME280;64245;51.282;22.494;2023-02-04T03:56:29;98800.72;;;-2.72;98.75
75650;BME280;64245;51.282;22.494;2023-02-04T03:58:55;98798.38;;;-2.78;98.75
75650;BME280;64245;51.282;22.494;2023-02-04T04:01:20;98810.16;;;-2.68;98.06
75650;BME280;64245;51.282;22.494;2023-02-04T04:03:46;98813.47;;;-2.82;98.03
75650;BME280;64245;51.282;22.494;2023-02-04T04:06:11;98831.03;;;-2.63;98.70
75650;BME280;64245;51.282;22.494;2023-02-04T04:08:37;98861.03;;;-2.66;99.01
75650;BME280;64245;51.282;22.494;2023-02-04T04:11:03;98830.28;;;-2.84;98.40
75650;BME280;64245;51.282;22.494;2023-02-04T04:13:29;98868.41;;;-2.72;98.47
75650;BME280;64245;51.282;22.494;2023-02-04T04:15:54;98864.97;;;-2.74;98.21
75650;BME280;64245;51.282;22.494;2023-02-04T04:18:20;98855.63;;;-2.82;98.11
75650;BME280;64245;51.282;22.494;2023-02-04T04:20:46;98858.56;;;-2.88;98.39
75650;BME280;64245;51.282;22.494;2023-02-04T04:23:12;98867.16;;;-2.84;97.69
75650;BME280;64245;51.282;22.494;2023-02-04T04:25:37;98897.53;;;-2.75;97.70
75650;BME280;64245;51.282;22.494;2023-02-04T04:28:03;98905.50;;;-2.77;97.78
75650;BME280;64245;51.282;22.494;2023-02-04T04:30:28;98894.50;;;-2.87;97.42
75650;BME280;64245;51.282;22.494;2023-02-04T04:32:54;98913.03;;;-2.88;97.66
75650;BME280;64245;51.282;22.494;2023-02-04T04:35:20;98911.47;;;-2.92;97.35
75650;BME280;64245;51.282;22.494;2023-02-04T04:37:45;98946.44;;;-2.89;97.25
75650;BME280;64245;51.282;22.494;2023-02-04T04:40:11;98969.94;;;-2.84;96.64
75650;BME280;64245;51.282;22.494;2023-02-04T04:42:37;98969.31;;;-2.89;96.83
75650;BME280;64245;51.282;22.494;2023-02-04T04:45:05;98989.03;;;-2.79;96.41
75650;BME280;64245;51.282;22.494;2023-02-04T04:47:31;98978.13;;;-2.90;95.96
75650;BME280;64245;51.282;22.494;2023-02-04T04:49:56;98990.44;;;-2.91;95.91
75650;BME280;64245;51.282;22.494;2023-02-04T04:52:22;98978.19;;;-2.92;95.61
75650;BME280;64245;51.282;22.494;2023-02-04T04:54:47;99020.13;;;-2.87;95.54
75650;BME280;64245;51.282;22.494;2023-02-04T04:57:13;99023.63;;;-2.87;95.14
75650;BME280;64245;51.282;22.494;2023-02-04T04:59:38;99042.47;;;-2.96;95.00
75650;BME280;64245;51.282;22.494;2023-02-04T05:02:04;99052.34;;;-3.01;94.50
75650;BME280;64245;51.282;22.494;2023-02-04T05:04:30;99057.63;;;-3.01;94.73
75650;BME280;64245;51.282;22.494;2023-02-04T05:06:55;99069.25;;;-3.06;94.45
75650;BME280;64245;51.282;22.494;2023-02-04T05:09:21;99048.78;;;-3.20;93.64
75650;BME280;64245;51.282;22.494;2023-02-04T05:11:47;99098.50;;;-3.13;93.79
75650;BME280;64245;51.282;22.494;2023-02-04T05:14:12;99075.47;;;-3.28;93.63
75650;BME280;64245;51.282;22.494;2023-02-04T05:16:38;99072.03;;;-3.30;93.29
75650;BME280;64245;51.282;22.494;2023-02-04T05:19:03;99109.69;;;-3.07;92.40
75650;BME280;64245;51.282;22.494;2023-02-04T05:21:29;99132.41;;;-3.05;92.22
75650;BME280;64245;51.282;22.494;2023-02-04T05:23:55;99120.34;;;-3.31;91.81
75650;BME280;64245;51.282;22.494;2023-02-04T05:26:20;99136.44;;;-3.17;91.89
75650;BME280;64245;51.282;22.494;2023-02-04T05:28:46;99117.72;;;-3.31;90.98
75650;BME280;64245;51.282;22.494;2023-02-04T05:31:12;99143.25;;;-3.33;91.06
75650;BME280;64245;51.282;22.494;2023-02-04T05:33:37;99173.66;;;-3.26;90.22
75650;BME280;64245;51.282;22.494;2023-02-04T05:36:03;99185.25;;;-3.30;90.65
75650;BME280;64245;51.282;22.494;2023-02-04T05:38:28;99183.59;;;-3.32;90.47
75650;BME280;64245;51.282;22.494;2023-02-04T05:40:54;99184.56;;;-3.35;89.95
75650;BME280;64245;51.282;22.494;2023-02-04T05:43:19;99196.94;;;-3.37;89.89
75650;BME280;64245;51.282;22.494;2023-02-04T05:45:45;99195.09;;;-3.57;89.90
75650;BME280;64245;51.282;22.494;2023-02-04T05:48:11;99208.19;;;-3.55;90.54
75650;BME280;64245;51.282;22.494;2023-02-04T05:50:36;99215.75;;;-3.69;90.22
75650;BME280;64245;51.282;22.494;2023-02-04T05:53:02;99226.22;;;-3.68;90.17
75650;BME280;64245;51.282;22.494;2023-02-04T05:55:28;99244.81;;;-3.72;90.67
75650;BME280;64245;51.282;22.494;2023-02-04T05:57:53;99230.50;;;-3.89;89.50
75650;BME280;64245;51.282;22.494;2023-02-04T06:00:19;99253.31;;;-3.89;90.64
75650;BME280;64245;51.282;22.494;2023-02-04T06:02:45;99265.63;;;-3.90;90.15
75650;BME280;64245;51.282;22.494;2023-02-04T06:05:10;99280.66;;;-3.93;90.08
75650;BME280;64245;51.282;22.494;2023-02-04T06:07:36;99289.00;;;-4.05;90.42
75650;BME280;64245;51.282;22.494;2023-02-04T06:10:02;99300.38;;;-4.05;90.28
75650;BME280;64245;51.282;22.494;2023-02-04T06:12:28;99296.41;;;-4.18;90.41
75650;BME280;64245;51.282;22.494;2023-02-04T06:14:53;99299.97;;;-4.19;90.69
75650;BME280;64245;51.282;22.494;2023-02-04T06:17:20;99312.25;;;-4.20;90.28
75650;BME280;64245;51.282;22.494;2023-02-04T06:19:46;99322.56;;;-4.13;89.42
75650;BME280;64245;51.282;22.494;2023-02-04T06:22:11;99314.78;;;-4.17;89.43
75650;BME280;64245;51.282;22.494;2023-02-04T06:24:37;99344.38;;;-4.10;89.21
75650;BME280;64245;51.282;22.494;2023-02-04T06:27:02;99355.94;;;-4.15;88.55
75650;BME280;64245;51.282;22.494;2023-02-04T06:29:28;99353.69;;;-4.26;88.23
75650;BME280;64245;51.282;22.494;2023-02-04T06:31:54;99366.66;;;-4.22;87.43
75650;BME280;64245;51.282;22.494;2023-02-04T06:34:20;99361.63;;;-4.28;86.42
75650;BME280;64245;51.282;22.494;2023-02-04T06:36:45;99394.97;;;-4.03;86.70
75650;BME280;64245;51.282;22.494;2023-02-04T06:39:11;99388.09;;;-4.07;86.09
75650;BME280;64245;51.282;22.494;2023-02-04T06:41:36;99414.03;;;-3.97;85.28
75650;BME280;64245;51.282;22.494;2023-02-04T06:44:02;99401.16;;;-4.04;85.80
75650;BME280;64245;51.282;22.494;2023-02-04T06:46:28;99411.59;;;-4.03;84.70
75650;BME280;64245;51.282;22.494;2023-02-04T06:48:53;99433.31;;;-3.96;84.58
75650;BME280;64245;51.282;22.494;2023-02-04T06:51:20;99434.78;;;-3.88;83.63
75650;BME280;64245;51.282;22.494;2023-02-04T06:53:46;99446.75;;;-3.79;84.07
75650;BME280;64245;51.282;22.494;2023-02-04T06:56:11;99456.38;;;-3.78;82.92
75650;BME280;64245;51.282;22.494;2023-02-04T06:58:37;99464.44;;;-3.84;83.25
75650;BME280;64245;51.282;22.494;2023-02-04T07:01:03;99470.53;;;-3.82;83.34
75650;BME280;64245;51.282;22.494;2023-02-04T07:03:30;99454.16;;;-3.90;83.87
75650;BME280;64245;51.282;22.494;2023-02-04T07:05:56;99453.41;;;-3.94;84.17
75650;BME280;64245;51.282;22.494;2023-02-04T07:08:21;99474.19;;;-3.86;83.79
75650;BME280;64245;51.282;22.494;2023-02-04T07:10:47;99510.47;;;-3.69;83.49
75650;BME280;64245;51.282;22.494;2023-02-04T07:13:12;99510.16;;;-3.60;83.39
75650;BME280;64245;51.282;22.494;2023-02-04T07:15:38;99526.22;;;-3.43;82.88
75650;BME280;64245;51.282;22.494;2023-02-04T07:18:04;99525.22;;;-3.39;82.56
75650;BME280;64245;51.282;22.494;2023-02-04T07:20:29;99527.44;;;-3.27;83.12
75650;BME280;64245;51.282;22.494;2023-02-04T07:22:55;99512.72;;;-3.32;82.51
75650;BME280;64245;51.282;22.494;2023-02-04T07:25:20;99537.34;;;-3.08;82.00
75650;BME280;64245;51.282;22.494;2023-02-04T07:27:46;99534.38;;;-3.24;81.24
75650;BME280;64245;51.282;22.494;2023-02-04T07:30:12;99557.19;;;-2.98;81.91
75650;BME280;64245;51.282;22.494;2023-02-04T07:32:38;99563.47;;;-3.02;82.90
75650;BME280;64245;51.282;22.494;2023-02-04T07:35:04;99581.50;;;-2.90;82.84
75650;BME280;64245;51.282;22.494;2023-02-04T07:37:29;99584.59;;;-2.79;81.72
75650;BME280;64245;51.282;22.494;2023-02-04T07:39:55;99586.28;;;-2.76;81.98
75650;BME280;64245;51.282;22.494;2023-02-04T07:42:21;99574.50;;;-2.91;80.85
75650;BME280;64245;51.282;22.494;2023-02-04T07:44:46;99592.56;;;-2.81;82.09
75650;BME280;64245;51.282;22.494;2023-02-04T07:47:12;99608.16;;;-2.74;82.86
75650;BME280;64245;51.282;22.494;2023-02-04T07:49:37;99620.59;;;-2.78;82.11
75650;BME280;64245;51.282;22.494;2023-02-04T07:52:03;99628.44;;;-2.76;82.58
75650;BME280;64245;51.282;22.494;2023-02-04T07:54:29;99636.06;;;-2.69;83.41
75650;BME280;64245;51.282;22.494;2023-02-04T07:56:55;99638.91;;;-2.50;82.14
75650;BME280;64245;51.282;22.494;2023-02-04T07:59:20;99652.78;;;-2.45;81.54
75650;BME280;64245;51.282;22.494;2023-02-04T08:01:46;99661.56;;;-2.45;81.39
75650;BME280;64245;51.282;22.494;2023-02-04T08:04:12;99652.88;;;-2.23;81.75
75650;BME280;64245;51.282;22.494;2023-02-04T08:06:38;99654.16;;;-2.33;82.29
75650;BME280;64245;51.282;22.494;2023-02-04T08:09:03;99631.44;;;-2.37;81.78
75650;BME280;64245;51.282;22.494;2023-02-04T08:11:30;99640.91;;;-2.32;81.79
75650;BME280;64245;51.282;22.494;2023-02-04T08:13:55;99660.69;;;-2.20;81.08
75650;BME280;64245;51.282;22.494;2023-02-04T08:16:21;99646.59;;;-2.19;81.46
75650;BME280;64245;51.282;22.494;2023-02-04T08:18:47;99678.16;;;-1.93;81.80
75650;BME280;64245;51.282;22.494;2023-02-04T08:21:13;99665.50;;;-2.08;81.49
75650;BME280;64245;51.282;22.494;2023-02-04T08:23:38;99666.44;;;-1.86;80.87
75650;BME280;64245;51.282;22.494;2023-02-04T08:26:10;99678.25;;;-1.73;80.98
75650;BME280;64245;51.282;22.494;2023-02-04T08:28:36;99690.06;;;-1.59;80.70
75650;BME280;64245;51.282;22.494;2023-02-04T08:31:06;99705.47;;;-1.49;80.60
75650;BME280;64245;51.282;22.494;2023-02-04T08:33:36;99716.47;;;-1.59;80.57
75650;BME280;64245;51.282;22.494;2023-02-04T08:36:04;99716.38;;;-1.56;80.72
75650;BME280;64245;51.282;22.494;2023-02-04T08:38:30;99718.59;;;-1.46;82.18
75650;BME280;64245;51.282;22.494;2023-02-04T08:40:56;99705.09;;;-1.38;81.67
75650;BME280;64245;51.282;22.494;2023-02-04T08:43:22;99707.28;;;-1.49;81.94
75650;BME280;64245;51.282;22.494;2023-02-04T08:45:47;99730.66;;;-1.62;82.67
75650;BME280;64245;51.282;22.494;2023-02-04T08:48:13;99708.84;;;-1.67;84.16
75650;BME280;64245;51.282;22.494;2023-02-04T08:50:39;99742.19;;;-1.64;83.12
75650;BME280;64245;51.282;22.494;2023-02-04T08:53:04;99730.81;;;-1.90;83.85
75650;BME280;64245;51.282;22.494;2023-02-04T08:55:30;99729.22;;;-1.94;84.00
75650;BME280;64245;51.282;22.494;2023-02-04T08:57:55;99761.28;;;-1.81;84.94
75650;BME280;64245;51.282;22.494;2023-02-04T09:00:24;99758.91;;;-1.89;84.58
75650;BME280;64245;51.282;22.494;2023-02-04T09:02:49;99749.84;;;-2.05;84.77
75650;BME280;64245;51.282;22.494;2023-02-04T09:05:15;99772.63;;;-1.78;85.56
75650;BME280;64245;51.282;22.494;2023-02-04T09:07:41;99768.41;;;-1.83;84.89
75650;BME280;64245;51.282;22.494;2023-02-04T09:10:07;99780.44;;;-1.75;86.00
75650;BME280;64245;51.282;22.494;2023-02-04T09:12:32;99763.09;;;-2.06;86.15
75650;BME280;64245;51.282;22.494;2023-02-04T09:14:58;99773.75;;;-2.10;85.62
75650;BME280;64245;51.282;22.494;2023-02-04T09:17:24;99797.66;;;-1.89;86.40
75650;BME280;64245;51.282;22.494;2023-02-04T09:19:49;99788.28;;;-1.98;85.88
75650;BME280;64245;51.282;22.494;2023-02-04T09:22:15;99788.28;;;-1.98;86.04
75650;BME280;64245;51.282;22.494;2023-02-04T09:24:41;99788.00;;;-1.90;86.47
75650;BME280;64245;51.282;22.494;2023-02-04T09:27:06;99772.88;;;-1.85;85.77
75650;BME280;64245;51.282;22.494;2023-02-04T09:29:32;99784.19;;;-1.82;85.43
75650;BME280;64245;51.282;22.494;2023-02-04T09:31:57;99775.16;;;-1.75;84.56
75650;BME280;64245;51.282;22.494;2023-02-04T09:34:23;99799.38;;;-1.40;85.20
75650;BME280;64245;51.282;22.494;2023-02-04T09:36:49;99792.09;;;-1.57;85.24
75650;BME280;64245;51.282;22.494;2023-02-04T09:39:14;99791.69;;;-1.46;84.08
75650;BME280;64245;51.282;22.494;2023-02-04T09:41:40;99785.59;;;-1.48;85.02
75650;BME280;64245;51.282;22.494;2023-02-04T09:44:11;99824.63;;;-1.56;85.06
75650;BME280;64245;51.282;22.494;2023-02-04T09:46:38;99834.56;;;-1.63;85.40
75650;BME280;64245;51.282;22.494;2023-02-04T09:49:07;99808.72;;;-1.78;84.91
75650;BME280;64245;51.282;22.494;2023-02-04T09:51:34;99827.69;;;-1.68;86.56
75650;BME280;64245;51.282;22.494;2023-02-04T09:54:26;99845.44;;;-1.72;88.81
75650;BME280;64245;51.282;22.494;2023-02-04T09:56:52;99844.31;;;-1.65;88.93
75650;BME280;64245;51.282;22.494;2023-02-04T09:59:21;99857.38;;;-1.37;87.91
75650;BME280;64245;51.282;22.494;2023-02-04T10:02:00;99862.09;;;-1.22;86.99
75650;BME280;64245;51.282;22.494;2023-02-04T10:04:27;99852.34;;;-0.96;85.87
75650;BME280;64245;51.282;22.494;2023-02-04T10:06:54;99862.22;;;-1.01;81.84
75650;BME280;64245;51.282;22.494;2023-02-04T10:09:23;99868.00;;;-0.92;78.68
75650;BME280;64245;51.282;22.494;2023-02-04T10:11:48;99857.91;;;-1.27;77.66
75650;BME280;64245;51.282;22.494;2023-02-04T10:14:17;99884.16;;;-1.23;78.92
75650;BME280;64245;51.282;22.494;2023-02-04T10:16:55;99868.53;;;-1.29;79.18
75650;BME280;64245;51.282;22.494;2023-02-04T10:19:22;99878.47;;;-1.35;77.14
75650;BME280;64245;51.282;22.494;2023-02-04T10:21:48;99880.63;;;-1.47;78.60
75650;BME280;64245;51.282;22.494;2023-02-04T10:24:17;99887.41;;;-1.40;76.84
75650;BME280;64245;51.282;22.494;2023-02-04T10:26:44;99882.94;;;-1.37;76.53
75650;BME280;64245;51.282;22.494;2023-02-04T10:29:16;99894.59;;;-0.73;73.91
75650;BME280;64245;51.282;22.494;2023-02-04T10:31:45;99882.34;;;-0.97;73.52
75650;BME280;64245;51.282;22.494;2023-02-04T10:34:20;99895.31;;;-0.24;69.97
75650;BME280;64245;51.282;22.494;2023-02-04T10:36:48;99897.03;;;0.59;66.67
75650;BME280;64245;51.282;22.494;2023-02-04T10:39:23;99897.63;;;0.66;66.38
75650;BME280;64245;51.282;22.494;2023-02-04T10:41:57;99894.69;;;1.67;65.08
75650;BME280;64245;51.282;22.494;2023-02-04T10:44:31;99900.94;;;1.29;63.28
75650;BME280;64245;51.282;22.494;2023-02-04T10:47:05;99900.81;;;1.51;61.59
75650;BME280;64245;51.282;22.494;2023-02-04T10:49:31;99875.06;;;1.53;63.79
75650;BME280;64245;51.282;22.494;2023-02-04T10:51:57;99901.22;;;1.04;62.81
75650;BME280;64245;51.282;22.494;2023-02-04T10:54:26;99916.53;;;0.38;66.69
75650;BME280;64245;51.282;22.494;2023-02-04T10:56:58;99911.34;;;-0.51;68.09
75650;BME280;64245;51.282;22.494;2023-02-04T10:59:25;99932.06;;;-1.09;66.94
75650;BME280;64245;51.282;22.494;2023-02-04T11:01:55;99929.78;;;-0.94;66.43
75650;BME280;64245;51.282;22.494;2023-02-04T11:04:22;99933.81;;;0.05;65.66
75650;BME280;64245;51.282;22.494;2023-02-04T11:06:49;99923.59;;;0.17;61.55
75650;BME280;64245;51.282;22.494;2023-02-04T11:09:16;99923.97;;;0.08;61.87
75650;BME280;64245;51.282;22.494;2023-02-04T11:11:49;99918.69;;;0.89;59.61
75650;BME280;64245;51.282;22.494;2023-02-04T11:14:23;99948.63;;;0.30;59.48
75650;BME280;64245;51.282;22.494;2023-02-04T11:16:49;99940.41;;;-0.27;61.91
75650;BME280;64245;51.282;22.494;2023-02-04T11:19:30;99940.66;;;0.73;60.25
75650;BME280;64245;51.282;22.494;2023-02-04T11:22:03;99955.09;;;1.81;57.26
75650;BME280;64245;51.282;22.494;2023-02-04T11:24:32;99960.25;;;2.20;57.67
75650;BME280;64245;51.282;22.494;2023-02-04T11:27:06;99973.38;;;1.31;56.51
75650;BME280;64245;51.282;22.494;2023-02-04T11:29:35;99963.97;;;0.64;61.55
75650;BME280;64245;51.282;22.494;2023-02-04T11:34:53;99973.22;;;-0.31;62.10
75650;BME280;64245;51.282;22.494;2023-02-04T11:37:40;99977.88;;;-0.38;62.29
75650;BME280;64245;51.282;22.494;2023-02-04T11:40:32;99971.53;;;-0.34;63.35
75650;BME280;64245;51.282;22.494;2023-02-04T11:43:12;99980.06;;;-0.04;65.15
75650;BME280;64245;51.282;22.494;2023-02-04T11:45:40;99985.75;;;-0.37;63.41
75650;BME280;64245;51.282;22.494;2023-02-04T11:48:17;99988.28;;;-0.57;63.09
75650;BME280;64245;51.282;22.494;2023-02-04T11:51:10;99986.06;;;-0.67;64.00
75650;BME280;64245;51.282;22.494;2023-02-04T11:53:36;99969.91;;;-0.83;61.44
75650;BME280;64245;51.282;22.494;2023-02-04T11:56:02;99979.63;;;-0.60;63.20
75650;BME280;64245;51.282;22.494;2023-02-04T11:58:28;99981.69;;;-0.68;61.10
75650;BME280;64245;51.282;22.494;2023-02-04T12:00:55;99998.56;;;-0.96;59.82
75650;BME280;64245;51.282;22.494;2023-02-04T12:03:28;99997.31;;;-0.86;59.96
75650;BME280;64245;51.282;22.494;2023-02-04T12:05:57;99985.78;;;-0.60;62.35
75650;BME280;64245;51.282;22.494;2023-02-04T12:13:27;99973.88;;;-0.72;61.62
75650;BME280;64245;51.282;22.494;2023-02-04T12:15:58;99986.06;;;-0.44;61.57
75650;BME280;64245;51.282;22.494;2023-02-04T12:18:30;99979.41;;;-0.78;62.18
75650;BME280;64245;51.282;22.494;2023-02-04T12:20:58;99982.94;;;-0.55;62.62
75650;BME280;64245;51.282;22.494;2023-02-04T12:23:28;99945.53;;;-0.68;61.48
75650;BME280;64245;51.282;22.494;2023-02-04T12:25:57;99998.50;;;-0.46;61.89
75650;BME280;64245;51.282;22.494;2023-02-04T12:28:23;99973.34;;;-1.05;61.68
75650;BME280;64245;51.282;22.494;2023-02-04T12:30:48;99995.09;;;-0.96;61.93
75650;BME280;64245;51.282;22.494;2023-02-04T12:33:14;99992.75;;;-1.06;60.77
75650;BME280;64245;51.282;22.494;2023-02-04T12:35:41;100008.16;;;-1.17;62.22
75650;BME280;64245;51.282;22.494;2023-02-04T12:38:07;99994.16;;;-1.45;62.60
75650;BME280;64245;51.282;22.494;2023-02-04T12:40:33;99985.09;;;-1.38;64.92
75650;BME280;64245;51.282;22.494;2023-02-04T12:42:59;100001.69;;;-1.34;63.34
75650;BME280;64245;51.282;22.494;2023-02-04T12:45:25;100009.00;;;-1.16;63.91
75650;BME280;64245;51.282;22.494;2023-02-04T12:47:50;100009.69;;;-1.11;62.17
75650;BME280;64245;51.282;22.494;2023-02-04T12:50:18;100016.63;;;-1.33;62.30
75650;BME280;64245;51.282;22.494;2023-02-04T12:52:52;100019.34;;;-1.35;62.19
75650;BME280;64245;51.282;22.494;2023-02-04T12:55:19;100022.72;;;-1.31;63.33
75650;BME280;64245;51.282;22.494;2023-02-04T12:57:44;100028.69;;;-1.51;63.39
75650;BME280;64245;51.282;22.494;2023-02-04T13:00:12;100028.44;;;-1.70;62.81
75650;BME280;64245;51.282;22.494;2023-02-04T13:02:38;100020.78;;;-1.78;63.03